createdAt,value
2023-04-30T00:01:16.009Z,6.15
2023-04-30T00:03:43.467Z,5.78
2023-04-30T00:06:10.960Z,4.75
2023-04-30T00:08:38.334Z,5.05
2023-04-30T00:11:05.805Z,4.43
2023-04-30T00:13:35.839Z,5.45
2023-04-30T00:16:03.218Z,4.90
2023-04-30T00:18:33.595Z,3.70
2023-04-30T00:21:01.004Z,3.20
2023-04-30T00:23:28.408Z,4.35
2023-04-30T00:25:55.778Z,3.83
2023-04-30T00:28:23.190Z,3.40
2023-04-30T00:30:50.812Z,4.70
2023-04-30T00:33:18.407Z,5.60
2023-04-30T00:35:45.825Z,6.32
2023-04-30T00:38:13.188Z,5.85
2023-04-30T00:40:44.448Z,5.57
2023-04-30T00:43:11.836Z,5.03
2023-04-30T00:45:39.236Z,5.75
2023-04-30T00:48:06.715Z,5.28
2023-04-30T00:50:36.812Z,5.72
2023-04-30T00:53:04.432Z,5.72
2023-04-30T00:55:31.790Z,5.43
2023-04-30T00:57:59.459Z,5.78
2023-04-30T01:00:27.800Z,5.47
2023-04-30T01:02:57.081Z,5.65
2023-04-30T01:05:24.556Z,5.68
2023-04-30T01:07:51.998Z,5.72
2023-04-30T01:10:19.788Z,5.20
2023-04-30T01:13:05.984Z,5.30
2023-04-30T01:15:36.490Z,5.55
2023-04-30T01:18:03.916Z,4.72
2023-04-30T01:20:31.984Z,5.57
2023-04-30T01:23:28.518Z,5.50
2023-04-30T01:25:55.994Z,5.75
2023-04-30T01:28:25.019Z,5.28
2023-04-30T01:30:53.221Z,4.70
2023-04-30T01:33:20.937Z,5.10
2023-04-30T01:35:48.238Z,5.10
2023-04-30T01:38:34.165Z,5.03
2023-04-30T01:41:11.075Z,4.97
2023-04-30T01:43:46.574Z,4.68
2023-04-30T01:46:22.792Z,4.95
2023-04-30T01:48:53.064Z,6.03
2023-04-30T01:51:23.336Z,4.97
2023-04-30T01:53:50.830Z,4.25
2023-04-30T01:56:19.947Z,5.13
2023-04-30T01:58:48.122Z,4.78
2023-04-30T02:01:27.802Z,4.72
2023-04-30T02:03:55.392Z,4.05
2023-04-30T02:06:23.213Z,4.15
2023-04-30T02:08:50.557Z,4.13
2023-04-30T02:11:17.941Z,4.35
2023-04-30T02:13:45.265Z,4.07
2023-04-30T02:16:12.611Z,4.00
2023-04-30T02:18:40.062Z,3.20
2023-04-30T02:21:07.396Z,3.95
2023-04-30T02:23:34.739Z,4.85
2023-04-30T02:26:03.233Z,3.50
2023-04-30T02:28:30.849Z,3.88
2023-04-30T02:30:58.276Z,3.67
2023-04-30T02:33:25.990Z,3.70
2023-04-30T02:35:55.316Z,3.60
2023-04-30T02:38:22.732Z,3.45
2023-04-30T02:40:50.123Z,3.58
2023-04-30T02:43:17.465Z,3.35
2023-04-30T02:45:44.875Z,3.97
2023-04-30T02:48:12.392Z,3.55
2023-04-30T02:50:39.805Z,3.63
2023-04-30T02:53:07.215Z,3.50
2023-04-30T02:55:34.577Z,3.42
2023-04-30T02:58:01.967Z,3.40
2023-04-30T03:00:29.357Z,3.28
2023-04-30T03:02:57.034Z,3.78
2023-04-30T03:05:25.054Z,4.45
2023-04-30T03:07:52.355Z,4.60
2023-04-30T03:10:19.758Z,3.97
2023-04-30T03:12:47.142Z,4.40
2023-04-30T03:15:14.730Z,4.60
2023-04-30T03:17:43.890Z,4.95
2023-04-30T03:20:14.248Z,5.30
2023-04-30T03:22:42.036Z,4.78
2023-04-30T03:25:09.746Z,4.65
2023-04-30T03:27:37.048Z,4.57
2023-04-30T03:30:04.485Z,5.05
2023-04-30T03:32:31.866Z,5.07
2023-04-30T03:34:59.183Z,5.22
2023-04-30T03:37:26.531Z,4.82
2023-04-30T03:39:54.050Z,4.50
2023-04-30T03:42:21.814Z,5.28
2023-04-30T03:44:49.196Z,4.60
2023-04-30T03:47:16.561Z,4.10
2023-04-30T03:49:43.903Z,3.90
2023-04-30T03:52:11.434Z,4.05
2023-04-30T03:54:38.866Z,4.30
2023-04-30T03:57:08.073Z,3.70
2023-04-30T03:59:35.636Z,3.80
2023-04-30T04:02:03.040Z,4.10
2023-04-30T04:04:31.129Z,3.85
2023-04-30T04:06:58.638Z,4.18
2023-04-30T04:09:26.264Z,4.32
2023-04-30T04:11:53.613Z,4.15
2023-04-30T04:14:20.932Z,3.83
2023-04-30T04:16:48.279Z,3.55
2023-04-30T04:19:15.599Z,3.90
2023-04-30T04:21:43.020Z,3.60
2023-04-30T04:24:10.673Z,4.00
2023-04-30T04:26:38.475Z,3.88
2023-04-30T04:29:05.835Z,3.35
2023-04-30T04:31:33.248Z,4.32
2023-04-30T04:34:01.075Z,3.40
2023-04-30T04:36:29.156Z,3.25
2023-04-30T04:38:57.832Z,3.65
2023-04-30T04:41:26.852Z,3.63
2023-04-30T04:43:54.209Z,4.20
2023-04-30T04:46:22.818Z,4.00
2023-04-30T04:48:50.419Z,3.85
2023-04-30T04:51:17.744Z,4.25
2023-04-30T04:53:45.097Z,4.57
2023-04-30T04:56:13.146Z,4.72
2023-04-30T04:58:40.542Z,4.20
2023-04-30T05:01:07.899Z,5.50
2023-04-30T05:03:37.216Z,4.07
2023-04-30T05:06:04.965Z,4.22
2023-04-30T05:08:32.627Z,4.93
2023-04-30T05:10:59.961Z,4.80
2023-04-30T05:13:27.313Z,4.72
2023-04-30T05:15:54.839Z,4.13
2023-04-30T05:18:22.190Z,3.42
2023-04-30T05:20:49.706Z,3.58
2023-04-30T05:23:17.023Z,3.83
2023-04-30T05:25:44.548Z,3.15
2023-04-30T05:28:12.068Z,3.78
2023-04-30T05:30:39.430Z,3.35
2023-04-30T05:33:06.801Z,3.67
2023-04-30T05:35:36.317Z,3.80
2023-04-30T05:38:04.093Z,3.97
2023-04-30T05:40:31.518Z,3.60
2023-04-30T05:42:58.964Z,3.55
2023-04-30T05:45:27.113Z,3.65
2023-04-30T05:47:54.580Z,3.50
2023-04-30T05:50:21.969Z,3.20
2023-04-30T05:52:49.281Z,3.70
2023-04-30T05:55:16.671Z,3.13
2023-04-30T05:57:43.986Z,3.10
2023-04-30T06:00:11.590Z,3.10
2023-04-30T06:02:39.156Z,3.80
2023-04-30T06:05:08.148Z,3.88
2023-04-30T06:07:35.740Z,4.32
2023-04-30T06:10:03.136Z,3.97
2023-04-30T06:12:31.056Z,4.13
2023-04-30T06:14:58.482Z,4.50
2023-04-30T06:17:25.932Z,4.55
2023-04-30T06:19:53.548Z,4.30
2023-04-30T06:22:21.003Z,3.88
2023-04-30T06:24:48.290Z,4.53
2023-04-30T06:27:15.976Z,4.43
2023-04-30T06:29:43.304Z,4.70
2023-04-30T06:32:10.707Z,4.25
2023-04-30T06:34:38.682Z,5.15
2023-04-30T06:37:06.123Z,5.72
2023-04-30T06:39:33.482Z,5.97
2023-04-30T06:42:01.295Z,5.13
2023-04-30T06:44:28.668Z,6.18
2023-04-30T06:46:56.068Z,5.78
2023-04-30T06:49:23.507Z,7.50
2023-04-30T06:51:51.229Z,6.70
2023-04-30T06:54:18.567Z,7.60
2023-04-30T06:56:45.947Z,7.00
2023-04-30T06:59:13.308Z,8.27
2023-04-30T07:01:41.143Z,9.75
2023-04-30T07:04:08.617Z,8.90
2023-04-30T07:06:36.113Z,9.80
2023-04-30T07:09:06.510Z,7.78
2023-04-30T07:11:33.859Z,9.18
2023-04-30T07:14:01.195Z,8.95
2023-04-30T07:16:28.821Z,7.85
2023-04-30T07:18:56.257Z,8.27
2023-04-30T07:21:25.726Z,8.07
2023-04-30T07:23:53.033Z,8.88
2023-04-30T07:26:21.202Z,7.95
2023-04-30T07:28:50.066Z,7.65
2023-04-30T07:31:17.527Z,7.60
2023-04-30T07:33:45.126Z,7.78
2023-04-30T07:36:12.583Z,8.57
2023-04-30T07:38:39.909Z,8.43
2023-04-30T07:41:08.371Z,8.52
2023-04-30T07:43:36.210Z,8.90
2023-04-30T07:46:04.381Z,8.27
2023-04-30T07:48:31.980Z,8.65
2023-04-30T07:50:59.340Z,7.68
2023-04-30T07:53:26.846Z,8.35
2023-04-30T07:55:54.217Z,7.93
2023-04-30T07:58:21.530Z,8.55
2023-04-30T08:00:49.098Z,7.80
2023-04-30T08:03:16.536Z,8.18
2023-04-30T08:05:44.138Z,9.07
2023-04-30T08:08:11.525Z,7.30
2023-04-30T08:10:42.040Z,7.00
2023-04-30T08:13:09.364Z,6.43
2023-04-30T08:15:38.009Z,7.10
2023-04-30T08:18:06.071Z,7.57
2023-04-30T08:20:34.546Z,6.97
2023-04-30T08:23:02.985Z,8.40
2023-04-30T08:25:31.845Z,8.75
2023-04-30T08:27:59.922Z,7.55
2023-04-30T08:30:27.379Z,6.70
2023-04-30T08:32:56.745Z,6.45
2023-04-30T08:35:24.990Z,6.55
2023-04-30T08:37:53.491Z,7.43
2023-04-30T08:40:23.486Z,7.53
2023-04-30T08:42:56.589Z,6.05
2023-04-30T08:45:24.426Z,6.57
2023-04-30T08:47:53.068Z,6.80
2023-04-30T08:50:20.672Z,6.63
2023-04-30T08:52:48.112Z,6.15
2023-04-30T08:55:15.728Z,6.53
2023-04-30T08:57:43.098Z,7.10
2023-04-30T09:00:10.668Z,6.40
2023-04-30T09:02:44.529Z,6.43
2023-04-30T09:05:15.929Z,6.45
2023-04-30T09:08:01.066Z,6.55
2023-04-30T09:10:32.753Z,6.75
2023-04-30T09:13:01.611Z,6.18
2023-04-30T09:15:29.418Z,6.45
2023-04-30T09:18:10.458Z,7.05
2023-04-30T09:20:38.830Z,6.45
2023-04-30T09:23:10.104Z,7.07
2023-04-30T09:25:43.999Z,6.47
2023-04-30T09:28:12.042Z,6.53
2023-04-30T09:30:42.849Z,6.13
2023-04-30T09:33:12.159Z,6.20
2023-04-30T09:35:42.126Z,5.18
2023-04-30T09:38:25.709Z,5.47
2023-04-30T09:40:53.069Z,5.10
2023-04-30T09:43:20.498Z,5.65
2023-04-30T09:45:49.973Z,4.90
2023-04-30T09:48:18.087Z,4.72
2023-04-30T09:50:47.408Z,4.97
2023-04-30T09:56:26.348Z,4.63
2023-04-30T09:58:57.452Z,4.70
2023-04-30T10:01:27.795Z,4.30
2023-04-30T10:03:55.976Z,4.45
2023-04-30T10:06:23.811Z,4.97
2023-04-30T10:08:57.620Z,5.50
2023-04-30T10:11:28.857Z,4.60
2023-04-30T10:14:04.413Z,3.90
2023-04-30T10:16:50.699Z,3.92
2023-04-30T10:19:21.443Z,4.75
2023-04-30T10:21:49.317Z,4.93
2023-04-30T10:24:20.112Z,3.65
2023-04-30T10:26:48.069Z,3.83
2023-04-30T10:29:16.401Z,4.22
2023-04-30T10:31:48.400Z,3.88
2023-04-30T10:34:15.760Z,4.07
2023-04-30T10:36:51.537Z,3.75
2023-04-30T10:39:19.895Z,3.85
2023-04-30T10:41:47.544Z,3.83
2023-04-30T10:44:15.007Z,3.63
2023-04-30T10:46:42.595Z,3.60
2023-04-30T10:49:10.552Z,3.50
2023-04-30T10:51:55.124Z,3.42
2023-04-30T10:54:29.596Z,3.17
2023-04-30T10:57:20.397Z,3.70
2023-04-30T11:00:15.214Z,3.55
2023-04-30T11:02:48.650Z,3.72
2023-04-30T11:05:18.268Z,3.88
2023-04-30T11:07:52.918Z,3.20
2023-04-30T11:10:24.171Z,3.55
2023-04-30T11:12:53.434Z,3.72
2023-04-30T11:15:21.576Z,3.55
2023-04-30T11:17:50.265Z,3.60
2023-04-30T11:20:21.682Z,3.25
2023-04-30T11:22:49.146Z,3.78
2023-04-30T11:25:23.504Z,3.97
2023-04-30T11:27:51.233Z,3.72
2023-04-30T11:30:19.341Z,3.50
2023-04-30T11:32:47.987Z,3.67
2023-04-30T11:35:18.532Z,3.60
2023-04-30T11:37:46.594Z,3.90
2023-04-30T11:40:14.817Z,3.63
2023-04-30T11:42:47.121Z,3.25
2023-04-30T11:45:18.121Z,3.55
2023-04-30T11:47:52.675Z,3.00
2023-04-30T11:50:22.439Z,3.30
2023-04-30T11:52:51.179Z,2.80
2023-04-30T11:55:19.721Z,3.53
2023-04-30T11:57:48.076Z,3.42
2023-04-30T12:00:16.658Z,3.03
2023-04-30T12:02:46.232Z,3.03
2023-04-30T12:05:17.997Z,3.45
2023-04-30T12:07:49.553Z,3.65
2023-04-30T12:10:17.433Z,2.88
2023-04-30T12:12:45.259Z,2.97
2023-04-30T12:15:13.940Z,2.80
2023-04-30T12:17:41.532Z,2.90
2023-04-30T12:20:09.859Z,2.65
2023-04-30T12:22:40.416Z,2.97
2023-04-30T12:25:14.184Z,2.65
2023-04-30T12:27:42.376Z,2.10
2023-04-30T12:30:10.386Z,2.45
2023-04-30T12:32:41.325Z,2.40
2023-04-30T12:35:09.276Z,2.85
2023-04-30T12:37:36.678Z,2.40
2023-04-30T12:40:04.157Z,2.20
2023-04-30T12:42:34.631Z,1.83
2023-04-30T12:45:02.480Z,1.90
2023-04-30T12:47:30.337Z,2.22
2023-04-30T12:49:57.961Z,2.10
2023-04-30T12:52:26.834Z,2.22
2023-04-30T12:54:55.212Z,2.22
2023-04-30T12:57:22.701Z,1.90
2023-04-30T12:59:53.412Z,2.63
2023-04-30T13:02:24.125Z,2.35
2023-04-30T13:04:52.118Z,2.40
2023-04-30T13:07:19.490Z,1.90
2023-04-30T13:09:46.889Z,1.98
2023-04-30T13:12:15.206Z,2.03
2023-04-30T13:14:42.655Z,1.73
2023-04-30T13:17:12.570Z,1.90
2023-04-30T13:19:39.959Z,1.75
2023-04-30T13:22:07.490Z,1.88
2023-04-30T13:24:34.860Z,1.70
2023-04-30T13:27:02.945Z,1.85
2023-04-30T13:29:30.374Z,2.10
2023-04-30T13:31:57.749Z,1.83
2023-04-30T13:34:25.245Z,1.90
2023-04-30T13:36:53.682Z,1.70
2023-04-30T13:39:22.124Z,1.92
2023-04-30T13:41:49.509Z,2.20
2023-04-30T13:44:17.532Z,1.98
2023-04-30T13:46:45.070Z,2.30
2023-04-30T13:49:12.471Z,1.92
2023-04-30T13:51:39.833Z,2.10
2023-04-30T13:54:07.212Z,3.50
2023-04-30T13:56:37.335Z,2.60
2023-04-30T13:59:04.842Z,3.08
2023-04-30T14:01:33.782Z,2.70
2023-04-30T14:04:02.210Z,2.33
2023-04-30T14:06:29.862Z,3.00
2023-04-30T14:08:57.442Z,2.83
2023-04-30T14:11:24.835Z,2.50
2023-04-30T14:13:52.750Z,3.08
2023-04-30T14:16:21.085Z,3.03
2023-04-30T14:18:48.438Z,2.85
2023-04-30T14:21:16.006Z,2.70
2023-04-30T14:23:46.735Z,2.70
2023-04-30T14:26:14.373Z,2.85
2023-04-30T14:28:41.793Z,3.20
2023-04-30T14:31:10.573Z,2.40
2023-04-30T14:33:37.911Z,2.55
2023-04-30T14:36:05.446Z,2.50
2023-04-30T14:38:32.806Z,2.83
2023-04-30T14:41:00.207Z,2.53
2023-04-30T14:43:27.554Z,2.70
2023-04-30T14:45:55.033Z,2.63
2023-04-30T14:48:22.514Z,2.05
2023-04-30T14:50:49.965Z,2.13
2023-04-30T14:53:17.368Z,2.20
2023-04-30T14:55:44.765Z,2.42
2023-04-30T14:58:12.542Z,2.22
2023-04-30T15:00:39.975Z,2.20
2023-04-30T15:03:07.862Z,2.00
2023-04-30T15:05:35.599Z,2.55
2023-04-30T15:08:03.010Z,2.60
2023-04-30T15:10:30.448Z,2.40
2023-04-30T15:12:57.838Z,2.42
2023-04-30T15:15:28.411Z,2.30
2023-04-30T15:17:59.157Z,2.80
2023-04-30T15:20:27.011Z,3.40
2023-04-30T15:22:55.171Z,3.20
2023-04-30T15:25:24.295Z,3.17
2023-04-30T15:27:54.780Z,3.38
2023-04-30T15:30:22.300Z,3.15
2023-04-30T15:32:50.410Z,3.20
2023-04-30T15:35:18.048Z,3.30
2023-04-30T15:37:45.822Z,3.60
2023-04-30T15:40:15.724Z,3.17
2023-04-30T15:42:43.380Z,3.50
2023-04-30T15:45:11.074Z,2.83
2023-04-30T15:47:38.699Z,3.15
2023-04-30T15:50:06.335Z,5.05
2023-04-30T15:52:33.677Z,4.07
2023-04-30T15:55:01.123Z,3.75
2023-04-30T15:57:28.499Z,7.30
2023-04-30T15:59:56.370Z,4.65
2023-04-30T16:02:24.001Z,3.55
2023-04-30T16:04:51.377Z,6.53
2023-04-30T16:07:18.678Z,3.75
2023-04-30T16:09:49.182Z,4.22
2023-04-30T16:12:16.742Z,6.57
2023-04-30T16:14:44.088Z,4.80
2023-04-30T16:17:11.449Z,3.33
2023-04-30T16:19:38.886Z,3.38
2023-04-30T16:22:06.362Z,3.22
2023-04-30T16:24:33.680Z,3.42
2023-04-30T16:27:01.371Z,3.20
2023-04-30T16:29:28.898Z,2.65
2023-04-30T16:31:56.587Z,2.50
2023-04-30T16:34:24.274Z,3.28
2023-04-30T16:36:51.607Z,3.00
2023-04-30T16:39:19.000Z,2.38
2023-04-30T16:41:46.324Z,2.65
2023-04-30T16:44:13.757Z,3.53
2023-04-30T16:46:41.082Z,2.92
2023-04-30T16:49:08.427Z,3.55
2023-04-30T16:51:35.817Z,2.90
2023-04-30T16:54:03.209Z,2.30
2023-04-30T16:56:30.799Z,2.40
2023-04-30T16:58:58.205Z,2.50
2023-04-30T17:01:25.580Z,2.55
2023-04-30T17:03:52.979Z,2.42
2023-04-30T17:06:20.422Z,2.50
2023-04-30T17:08:48.270Z,1.80
2023-04-30T17:11:19.309Z,1.75
2023-04-30T17:13:46.758Z,2.00
2023-04-30T17:16:14.198Z,1.92
2023-04-30T17:18:42.011Z,1.90
2023-04-30T17:21:09.418Z,3.40
2023-04-30T17:23:36.811Z,3.72
2023-04-30T17:26:04.387Z,2.70
2023-04-30T17:28:32.981Z,2.70
2023-04-30T17:31:06.868Z,2.40
2023-04-30T17:33:34.608Z,1.75
2023-04-30T17:36:02.016Z,2.40
2023-04-30T17:38:29.425Z,2.22
2023-04-30T17:40:57.823Z,1.73
2023-04-30T17:43:25.497Z,1.80
2023-04-30T17:45:53.668Z,2.30
2023-04-30T17:48:21.227Z,2.00
2023-04-30T17:50:48.653Z,1.80
2023-04-30T17:53:16.219Z,1.70
2023-04-30T17:55:43.628Z,1.60
2023-04-30T17:58:11.725Z,1.80
2023-04-30T18:00:39.724Z,1.55
2023-04-30T18:03:07.397Z,1.80
2023-04-30T18:05:35.870Z,1.50
2023-04-30T18:08:03.568Z,2.45
2023-04-30T18:10:31.006Z,3.53
2023-04-30T18:12:59.710Z,4.80
2023-04-30T18:15:29.903Z,3.90
2023-04-30T18:17:59.393Z,3.20
2023-04-30T18:20:26.897Z,2.30
2023-04-30T18:22:54.328Z,2.25
2023-04-30T18:25:22.147Z,1.88
2023-04-30T18:27:49.730Z,1.83
2023-04-30T18:30:17.035Z,2.00
2023-04-30T18:32:44.480Z,2.70
2023-04-30T18:35:11.883Z,2.28
2023-04-30T18:37:39.324Z,1.92
2023-04-30T18:40:07.132Z,2.15
2023-04-30T18:42:34.912Z,2.50
2023-04-30T18:45:02.347Z,2.78
2023-04-30T18:47:31.066Z,2.90
2023-04-30T18:49:58.942Z,2.85
2023-04-30T18:52:26.287Z,3.53
2023-04-30T18:54:53.758Z,3.80
2023-04-30T18:57:21.077Z,3.15
2023-04-30T18:59:49.036Z,3.50
2023-04-30T19:02:16.720Z,3.65
2023-04-30T19:04:44.212Z,3.40
2023-04-30T19:07:12.267Z,3.20
2023-04-30T19:09:39.613Z,2.30
2023-04-30T19:12:07.032Z,2.90
2023-04-30T19:14:34.437Z,3.40
2023-04-30T19:17:01.787Z,2.95
2023-04-30T19:19:29.216Z,3.13
2023-04-30T19:21:56.849Z,3.33
2023-04-30T19:24:25.492Z,5.18
2023-04-30T19:26:52.826Z,3.75
2023-04-30T19:29:20.233Z,4.65
2023-04-30T19:31:47.719Z,4.13
2023-04-30T19:34:16.170Z,3.42
2023-04-30T19:36:46.623Z,3.10
2023-04-30T19:39:14.079Z,4.60
2023-04-30T19:41:41.613Z,3.28
2023-04-30T19:44:10.329Z,2.90
2023-04-30T19:46:37.749Z,3.13
2023-04-30T19:49:05.091Z,2.70
2023-04-30T19:51:32.489Z,3.40
2023-04-30T19:53:59.857Z,3.17
2023-04-30T19:56:27.328Z,3.40
2023-04-30T19:58:54.753Z,3.13
2023-04-30T20:01:22.110Z,2.95
2023-04-30T20:03:49.641Z,3.45
2023-04-30T20:06:17.108Z,3.40
2023-04-30T20:08:44.426Z,3.20
2023-04-30T20:11:11.788Z,3.60
2023-04-30T20:13:39.150Z,2.97
2023-04-30T20:16:06.888Z,3.22
2023-04-30T20:18:34.269Z,2.92
2023-04-30T20:21:01.755Z,3.58
2023-04-30T20:23:29.099Z,3.88
2023-04-30T20:25:56.424Z,3.25
2023-04-30T20:28:23.791Z,3.25
2023-04-30T20:30:51.736Z,3.55
2023-04-30T20:33:19.132Z,3.40
2023-04-30T20:35:47.563Z,3.45
2023-04-30T20:38:19.562Z,2.85
2023-04-30T20:40:47.328Z,2.88
2023-04-30T20:43:14.823Z,2.60
2023-04-30T20:45:44.778Z,2.80
2023-04-30T20:48:12.253Z,2.83
2023-04-30T20:50:40.244Z,2.50
2023-04-30T20:53:10.231Z,2.53
2023-04-30T20:55:38.458Z,2.85
2023-04-30T20:58:05.912Z,2.63
2023-04-30T21:00:33.265Z,2.83
2023-04-30T21:03:00.885Z,2.78
2023-04-30T21:05:29.197Z,2.20
2023-04-30T21:08:01.392Z,2.60
2023-04-30T21:10:36.355Z,2.50
2023-04-30T21:13:05.469Z,2.30
2023-04-30T21:15:33.279Z,2.75
2023-04-30T21:18:00.818Z,2.50
2023-04-30T21:20:28.341Z,2.60
2023-04-30T21:22:56.799Z,3.25
2023-04-30T21:25:24.175Z,2.90
2023-04-30T21:27:52.452Z,2.50
2023-04-30T21:30:23.510Z,2.42
2023-04-30T21:32:58.286Z,2.42
2023-04-30T21:35:27.576Z,2.80
2023-04-30T21:37:55.164Z,3.08
2023-04-30T21:40:22.577Z,2.72
2023-04-30T21:42:50.082Z,3.40
2023-04-30T21:45:17.473Z,3.03
2023-04-30T21:47:45.485Z,3.38
2023-04-30T21:50:13.670Z,3.10
2023-04-30T21:52:41.557Z,2.95
2023-04-30T21:55:09.726Z,2.70
2023-04-30T21:57:37.081Z,2.58
2023-04-30T22:00:06.594Z,2.58
2023-04-30T22:02:34.042Z,3.25
2023-04-30T22:05:01.818Z,2.50
2023-04-30T22:07:29.872Z,3.15
2023-04-30T22:09:57.577Z,3.65
2023-04-30T22:12:25.413Z,2.83
2023-04-30T22:14:56.063Z,2.70
2023-04-30T22:17:23.708Z,3.50
2023-04-30T22:19:51.318Z,3.75
2023-04-30T22:22:18.644Z,3.10
2023-04-30T22:24:46.205Z,3.10
2023-04-30T22:27:13.594Z,2.45
2023-04-30T22:29:41.361Z,2.58
2023-04-30T22:32:09.570Z,2.63
2023-04-30T22:34:39.002Z,3.17
2023-04-30T22:37:06.587Z,3.47
2023-04-30T22:39:33.926Z,3.20
2023-04-30T22:42:01.287Z,2.67
2023-04-30T22:44:29.520Z,2.78
2023-04-30T22:46:58.234Z,3.22
2023-04-30T22:49:31.279Z,2.47
2023-04-30T22:51:59.627Z,2.92
2023-04-30T22:54:27.103Z,2.47
2023-04-30T22:56:54.474Z,2.95
2023-04-30T22:59:21.904Z,2.38
2023-04-30T23:01:49.502Z,2.80
2023-04-30T23:04:17.061Z,3.00
2023-04-30T23:06:44.491Z,3.25
2023-04-30T23:09:12.852Z,2.63
2023-04-30T23:11:40.185Z,3.00
2023-04-30T23:14:08.361Z,3.13
2023-04-30T23:16:35.860Z,2.53
2023-04-30T23:19:03.230Z,2.65
2023-04-30T23:21:31.409Z,2.80
2023-04-30T23:23:58.712Z,3.60
2023-04-30T23:26:26.096Z,2.70
2023-04-30T23:28:55.376Z,2.50
2023-04-30T23:31:22.905Z,2.70
2023-04-30T23:33:50.195Z,2.70
2023-04-30T23:36:17.601Z,3.88
2023-04-30T23:38:46.765Z,2.65
2023-04-30T23:41:14.727Z,2.83
2023-04-30T23:43:42.119Z,2.58
2023-04-30T23:46:09.632Z,2.65
2023-04-30T23:48:37.517Z,2.30
2023-04-30T23:51:05.771Z,2.58
2023-04-30T23:53:33.098Z,2.28
2023-04-30T23:56:00.456Z,2.33
2023-04-30T23:58:30.143Z,3.72
